Kezdőlap
METAR-TAF:

METAR-TAF

Repülőterek :

Torino, Olaszország

földrajzi szélesség: 45-05-20N, földrajzi hosszúság: 007-36-20E, magasság: 288 m

Jelenlegi meteorológiai megfigyelések

A jelentés 1 órával és 12 perccel ezelõtt készült, 12:50 UTC
Déli szél 3 kt, kelet-délkeleti és nyugati között változik
Hőmérséklet 15°C
Páratartalom 48%
Légköri nyomás 1023 hPa
Látótávolság: 5000 m
Párásság

METAR: LIMA 181250Z 18003KT 120V260 5000 BR NSC 15/04 Q1023

Idő: 15:02 (14:02 UTC)


TAF: hiányzik

Meteorológiai megfigyelések és előrejelzések több, mint 4000 repülőtéren (METAR és TAF jelentéseket).

A térképen piros és sárga pontok jelzik az elérhető meteorológiai állomásokat.

Mozgassa az egeret a pont fölött, hogy megjelenjen az állomás neve.

Azután kattintson az időjárási megfigyelések és előrejelzések megtekintéséhez.

A térkép megváltoztatása: kattintson a fekete keresztel jelölt zöld gombra ráközelítéshez, a vonallal jelölt zöld gombra távolításhoz, vagy a zöld nyilakra a szomszédos térképek eléréséhez.


METAR-TAF: